sensor_id;sensor_type;location;lat;lon;timestamp;pressure;altitude;pressure_sealevel;temperature;humidity
41062;BME280;26812;42.662;23.352;2022-07-24T00:00:37;95042.22;;;23.54;47.25
41062;BME280;26812;42.662;23.352;2022-07-24T00:03:02;95040.25;;;23.51;47.35
41062;BME280;26812;42.662;23.352;2022-07-24T00:05:28;95046.16;;;23.64;47.24
41062;BME280;26812;42.662;23.352;2022-07-24T00:07:53;95034.75;;;23.69;47.07
41062;BME280;26812;42.662;23.352;2022-07-24T00:10:19;95043.38;;;23.53;47.54
41062;BME280;26812;42.662;23.352;2022-07-24T00:12:44;95042.25;;;23.58;47.90
41062;BME280;26812;42.662;23.352;2022-07-24T00:15:10;95041.84;;;23.48;48.32
41062;BME280;26812;42.662;23.352;2022-07-24T00:17:36;95048.53;;;23.58;48.17
41062;BME280;26812;42.662;23.352;2022-07-24T00:20:02;95042.66;;;23.35;48.81
41062;BME280;26812;42.662;23.352;2022-07-24T00:22:27;95046.97;;;23.36;48.78
41062;BME280;26812;42.662;23.352;2022-07-24T00:24:53;95044.22;;;23.43;49.11
41062;BME280;26812;42.662;23.352;2022-07-24T00:27:18;95030.91;;;23.13;49.00
41062;BME280;26812;42.662;23.352;2022-07-24T00:29:44;95044.63;;;23.20;49.54
41062;BME280;26812;42.662;23.352;2022-07-24T00:32:09;95041.88;;;23.23;49.57
41062;BME280;26812;42.662;23.352;2022-07-24T00:34:35;95041.50;;;23.32;49.13
41062;BME280;26812;42.662;23.352;2022-07-24T00:37:00;95030.13;;;22.98;49.35
41062;BME280;26812;42.662;23.352;2022-07-24T00:39:26;95045.84;;;23.05;48.99
41062;BME280;26812;42.662;23.352;2022-07-24T00:41:51;95042.31;;;23.04;49.13
41062;BME280;26812;42.662;23.352;2022-07-24T00:44:20;95033.66;;;23.06;48.81
41062;BME280;26812;42.662;23.352;2022-07-24T00:46:46;95035.25;;;23.00;48.90
41062;BME280;26812;42.662;23.352;2022-07-24T00:49:15;95036.78;;;23.11;48.44
41062;BME280;26812;42.662;23.352;2022-07-24T00:51:42;95038.75;;;23.18;48.37
41062;BME280;26812;42.662;23.352;2022-07-24T00:54:10;95023.03;;;23.15;48.62
41062;BME280;26812;42.662;23.352;2022-07-24T00:56:36;95042.28;;;23.18;48.58
41062;BME280;26812;42.662;23.352;2022-07-24T00:59:03;95039.53;;;23.22;49.11
41062;BME280;26812;42.662;23.352;2022-07-24T01:01:29;95035.19;;;23.24;48.94
41062;BME280;26812;42.662;23.352;2022-07-24T01:03:55;95031.69;;;23.28;49.13
41062;BME280;26812;42.662;23.352;2022-07-24T01:06:21;95038.34;;;23.23;49.19
41062;BME280;26812;42.662;23.352;2022-07-24T01:08:47;95033.66;;;22.99;50.12
41062;BME280;26812;42.662;23.352;2022-07-24T01:11:12;95020.31;;;22.90;50.28
41062;BME280;26812;42.662;23.352;2022-07-24T01:13:39;95036.81;;;23.04;50.09
41062;BME280;26812;42.662;23.352;2022-07-24T01:16:05;95042.69;;;23.13;50.87
41062;BME280;26812;42.662;23.352;2022-07-24T01:18:31;95044.66;;;22.99;50.59
41062;BME280;26812;42.662;23.352;2022-07-24T01:20:56;95040.72;;;22.89;50.87
41062;BME280;26812;42.662;23.352;2022-07-24T01:23:22;95037.19;;;22.96;50.81
41062;BME280;26812;42.662;23.352;2022-07-24T01:25:48;95032.47;;;22.92;50.79
41062;BME280;26812;42.662;23.352;2022-07-24T01:28:14;95017.16;;;22.77;51.44
41062;BME280;26812;42.662;23.352;2022-07-24T01:30:39;95013.22;;;22.64;51.94
41062;BME280;26812;42.662;23.352;2022-07-24T01:33:05;95024.63;;;22.66;51.80
41062;BME280;26812;42.662;23.352;2022-07-24T01:35:30;95017.13;;;22.63;51.65
41062;BME280;26812;42.662;23.352;2022-07-24T01:37:56;95015.94;;;22.53;51.58
41062;BME280;26812;42.662;23.352;2022-07-24T01:40:21;95028.13;;;22.67;51.49
41062;BME280;26812;42.662;23.352;2022-07-24T01:42:47;95031.25;;;22.61;51.38
41062;BME280;26812;42.662;23.352;2022-07-24T01:45:13;95030.47;;;22.57;51.75
41062;BME280;26812;42.662;23.352;2022-07-24T01:47:40;95023.41;;;22.60;52.08
41062;BME280;26812;42.662;23.352;2022-07-24T01:50:05;95011.63;;;22.56;51.79
41062;BME280;26812;42.662;23.352;2022-07-24T01:52:31;95023.41;;;22.63;50.96
41062;BME280;26812;42.662;23.352;2022-07-24T01:54:56;95021.88;;;22.66;51.13
41062;BME280;26812;42.662;23.352;2022-07-24T01:57:22;94975.53;;;22.22;51.40
41062;BME280;26812;42.662;23.352;2022-07-24T01:59:47;95014.00;;;22.54;51.33
41062;BME280;26812;42.662;23.352;2022-07-24T02:02:13;95003.00;;;22.57;51.35
41062;BME280;26812;42.662;23.352;2022-07-24T02:04:38;95018.72;;;22.68;51.46
41062;BME280;26812;42.662;23.352;2022-07-24T02:07:03;95014.00;;;22.50;51.99
41062;BME280;26812;42.662;23.352;2022-07-24T02:09:29;95020.66;;;22.49;52.26
41062;BME280;26812;42.662;23.352;2022-07-24T02:11:54;95012.44;;;22.56;52.27
41062;BME280;26812;42.662;23.352;2022-07-24T02:14:20;95011.25;;;22.61;52.22
41062;BME280;26812;42.662;23.352;2022-07-24T02:16:45;95006.19;;;22.67;51.39
41062;BME280;26812;42.662;23.352;2022-07-24T02:19:11;95015.94;;;22.53;52.00
41062;BME280;26812;42.662;23.352;2022-07-24T02:21:36;95008.91;;;22.56;52.02
41062;BME280;26812;42.662;23.352;2022-07-24T02:24:02;95014.00;;;22.40;51.65
41062;BME280;26812;42.662;23.352;2022-07-24T02:26:28;95013.56;;;22.27;45.63
41062;BME280;26812;42.662;23.352;2022-07-24T02:28:53;94984.84;;;22.03;49.44
41062;BME280;26812;42.662;23.352;2022-07-24T02:31:19;95009.25;;;22.29;50.60
41062;BME280;26812;42.662;23.352;2022-07-24T02:33:44;95000.66;;;22.38;46.56
41062;BME280;26812;42.662;23.352;2022-07-24T02:36:10;94991.19;;;22.11;47.72
41062;BME280;26812;42.662;23.352;2022-07-24T02:38:35;95005.28;;;22.09;48.27
41062;BME280;26812;42.662;23.352;2022-07-24T02:41:00;95011.56;;;22.10;45.69
41062;BME280;26812;42.662;23.352;2022-07-24T02:43:26;95018.91;;;21.91;49.26
41062;BME280;26812;42.662;23.352;2022-07-24T02:45:51;95015.00;;;21.96;49.09
41062;BME280;26812;42.662;23.352;2022-07-24T02:48:17;95019.31;;;22.00;49.46
41062;BME280;26812;42.662;23.352;2022-07-24T02:50:42;95015.88;;;22.11;48.52
41062;BME280;26812;42.662;23.352;2022-07-24T02:53:08;95005.63;;;22.00;48.83
41062;BME280;26812;42.662;23.352;2022-07-24T02:55:33;95011.19;;;22.11;48.40
41062;BME280;26812;42.662;23.352;2022-07-24T02:57:59;95015.09;;;22.10;48.54
41062;BME280;26812;42.662;23.352;2022-07-24T03:00:25;95017.84;;;22.07;47.60
41062;BME280;26812;42.662;23.352;2022-07-24T03:02:50;95014.25;;;22.02;48.03
41062;BME280;26812;42.662;23.352;2022-07-24T03:05:16;95009.13;;;21.90;48.24
41062;BME280;26812;42.662;23.352;2022-07-24T03:07:41;95020.09;;;21.90;49.46
41062;BME280;26812;42.662;23.352;2022-07-24T03:10:09;95027.94;;;21.95;49.51
41062;BME280;26812;42.662;23.352;2022-07-24T03:12:35;95020.56;;;22.07;48.82
41062;BME280;26812;42.662;23.352;2022-07-24T03:15:00;95021.78;;;22.16;48.71
41062;BME280;26812;42.662;23.352;2022-07-24T03:17:26;95010.81;;;22.23;48.56
41062;BME280;26812;42.662;23.352;2022-07-24T03:19:51;95001.38;;;22.17;48.52
41062;BME280;26812;42.662;23.352;2022-07-24T03:22:16;95018.25;;;22.26;49.10
41062;BME280;26812;42.662;23.352;2022-07-24T03:24:42;95027.66;;;22.29;49.29
41062;BME280;26812;42.662;23.352;2022-07-24T03:27:07;95020.22;;;22.26;49.77
41062;BME280;26812;42.662;23.352;2022-07-24T03:29:33;95031.59;;;22.24;49.81
41062;BME280;26812;42.662;23.352;2022-07-24T03:31:58;95019.03;;;22.27;49.73
41062;BME280;26812;42.662;23.352;2022-07-24T03:34:24;95023.75;;;22.23;49.88
41062;BME280;26812;42.662;23.352;2022-07-24T03:36:49;95031.56;;;22.07;50.49
41062;BME280;26812;42.662;23.352;2022-07-24T03:39:15;95022.47;;;22.02;50.72
41062;BME280;26812;42.662;23.352;2022-07-24T03:41:40;95020.09;;;21.94;51.00
41062;BME280;26812;42.662;23.352;2022-07-24T03:44:06;95031.06;;;21.94;51.40
41062;BME280;26812;42.662;23.352;2022-07-24T03:46:31;94987.06;;;21.62;51.76
41062;BME280;26812;42.662;23.352;2022-07-24T03:48:57;95022.41;;;21.81;51.94
41062;BME280;26812;42.662;23.352;2022-07-24T03:51:23;95038.13;;;21.95;52.15
41062;BME280;26812;42.662;23.352;2022-07-24T03:53:49;95027.16;;;21.95;51.60
41062;BME280;26812;42.662;23.352;2022-07-24T03:56:14;95026.00;;;21.99;51.65
41062;BME280;26812;42.662;23.352;2022-07-24T03:58:41;95027.25;;;22.13;51.55
41062;BME280;26812;42.662;23.352;2022-07-24T04:01:06;95021.78;;;22.27;51.78
41062;BME280;26812;42.662;23.352;2022-07-24T04:03:32;95018.66;;;22.32;49.37
41062;BME280;26812;42.662;23.352;2022-07-24T04:06:00;95024.56;;;22.38;47.93
41062;BME280;26812;42.662;23.352;2022-07-24T04:08:26;95018.31;;;22.37;47.23
41062;BME280;26812;42.662;23.352;2022-07-24T04:10:51;95005.31;;;22.23;47.75
41062;BME280;26812;42.662;23.352;2022-07-24T04:13:25;95017.09;;;22.31;47.68
41062;BME280;26812;42.662;23.352;2022-07-24T04:15:51;95029.28;;;22.51;47.67
41062;BME280;26812;42.662;23.352;2022-07-24T04:18:17;95017.13;;;22.56;48.10
41062;BME280;26812;42.662;23.352;2022-07-24T04:20:42;95019.91;;;22.67;48.10
41062;BME280;26812;42.662;23.352;2022-07-24T04:23:08;95028.94;;;22.71;48.22
41062;BME280;26812;42.662;23.352;2022-07-24T04:25:33;95004.59;;;22.51;48.60
41062;BME280;26812;42.662;23.352;2022-07-24T04:28:00;95032.88;;;22.84;48.44
41062;BME280;26812;42.662;23.352;2022-07-24T04:30:26;95030.91;;;22.91;48.21
41062;BME280;26812;42.662;23.352;2022-07-24T04:32:52;95020.69;;;22.96;48.03
41062;BME280;26812;42.662;23.352;2022-07-24T04:35:17;94998.34;;;22.86;48.12
41062;BME280;26812;42.662;23.352;2022-07-24T04:37:43;95029.72;;;23.10;47.78
41062;BME280;26812;42.662;23.352;2022-07-24T04:40:09;95036.00;;;23.18;47.81
41062;BME280;26812;42.662;23.352;2022-07-24T04:42:35;95018.34;;;23.15;48.06
41062;BME280;26812;42.662;23.352;2022-07-24T04:45:00;95026.19;;;23.13;48.79
41062;BME280;26812;42.662;23.352;2022-07-24T04:47:25;95029.31;;;23.19;49.21
41062;BME280;26812;42.662;23.352;2022-07-24T04:49:51;95039.94;;;23.06;49.76
41062;BME280;26812;42.662;23.352;2022-07-24T04:52:16;95034.81;;;23.15;49.79
41062;BME280;26812;42.662;23.352;2022-07-24T04:54:42;95045.44;;;23.28;49.83
41062;BME280;26812;42.662;23.352;2022-07-24T04:57:07;95031.66;;;23.31;49.69
41062;BME280;26812;42.662;23.352;2022-07-24T04:59:33;95039.88;;;23.42;48.92
41062;BME280;26812;42.662;23.352;2022-07-24T05:01:58;95046.13;;;23.53;49.05
41062;BME280;26812;42.662;23.352;2022-07-24T05:04:23;95049.31;;;23.59;48.89
41062;BME280;26812;42.662;23.352;2022-07-24T05:06:49;95021.81;;;23.44;48.93
41062;BME280;26812;42.662;23.352;2022-07-24T05:09:14;95006.50;;;23.43;47.69
41062;BME280;26812;42.662;23.352;2022-07-24T05:11:40;95043.41;;;23.67;48.08
41062;BME280;26812;42.662;23.352;2022-07-24T05:14:05;95042.16;;;23.79;48.40
41062;BME280;26812;42.662;23.352;2022-07-24T05:16:31;95048.81;;;23.96;47.63
41062;BME280;26812;42.662;23.352;2022-07-24T05:18:56;95046.78;;;24.07;47.11
41062;BME280;26812;42.662;23.352;2022-07-24T05:21:21;95051.06;;;24.19;46.68
41062;BME280;26812;42.662;23.352;2022-07-24T05:23:47;95043.19;;;24.24;46.24
41062;BME280;26812;42.662;23.352;2022-07-24T05:26:12;95045.13;;;24.31;46.64
41062;BME280;26812;42.662;23.352;2022-07-24T05:28:38;95049.38;;;24.50;45.98
41062;BME280;26812;42.662;23.352;2022-07-24T05:31:03;95042.22;;;24.59;45.68
41062;BME280;26812;42.662;23.352;2022-07-24T05:33:29;95058.22;;;24.75;45.36
41062;BME280;26812;42.662;23.352;2022-07-24T05:35:54;95051.13;;;24.77;45.12
41062;BME280;26812;42.662;23.352;2022-07-24T05:38:20;95039.31;;;24.77;44.74
41062;BME280;26812;42.662;23.352;2022-07-24T05:40:45;95047.94;;;24.86;44.70
41062;BME280;26812;42.662;23.352;2022-07-24T05:43:10;95048.66;;;24.94;45.02
41062;BME280;26812;42.662;23.352;2022-07-24T05:45:36;95054.06;;;25.08;45.13
41062;BME280;26812;42.662;23.352;2022-07-24T05:48:01;95033.53;;;25.16;45.31
41062;BME280;26812;42.662;23.352;2022-07-24T05:50:26;95041.28;;;25.28;44.03
41062;BME280;26812;42.662;23.352;2022-07-24T05:52:52;95022.75;;;25.32;43.64
41062;BME280;26812;42.662;23.352;2022-07-24T05:55:17;95027.09;;;25.30;41.95
41062;BME280;26812;42.662;23.352;2022-07-24T05:57:45;95032.38;;;25.14;42.20
41062;BME280;26812;42.662;23.352;2022-07-24T06:00:11;95027.50;;;25.28;43.29
41062;BME280;26812;42.662;23.352;2022-07-24T06:02:36;95036.00;;;25.48;43.25
41062;BME280;26812;42.662;23.352;2022-07-24T06:05:02;95033.06;;;25.62;43.30
41062;BME280;26812;42.662;23.352;2022-07-24T06:07:28;95028.63;;;25.76;42.26
41062;BME280;26812;42.662;23.352;2022-07-24T06:09:53;95031.19;;;25.93;42.79
41062;BME280;26812;42.662;23.352;2022-07-24T06:12:18;95034.56;;;26.08;41.19
41062;BME280;26812;42.662;23.352;2022-07-24T06:14:44;95040.72;;;26.19;41.13
41062;BME280;26812;42.662;23.352;2022-07-24T06:17:09;95044.13;;;26.30;41.62
41062;BME280;26812;42.662;23.352;2022-07-24T06:19:35;95041.63;;;26.43;40.20
41062;BME280;26812;42.662;23.352;2022-07-24T06:22:00;95038.91;;;26.40;40.92
41062;BME280;26812;42.662;23.352;2022-07-24T06:24:25;95019.94;;;26.42;41.49
41062;BME280;26812;42.662;23.352;2022-07-24T06:26:51;95034.44;;;26.76;41.32
41062;BME280;26812;42.662;23.352;2022-07-24T06:29:16;95023.63;;;26.85;40.69
41062;BME280;26812;42.662;23.352;2022-07-24T06:31:42;95029.34;;;26.98;39.54
41062;BME280;26812;42.662;23.352;2022-07-24T06:34:07;95017.56;;;26.94;39.25
41062;BME280;26812;42.662;23.352;2022-07-24T06:36:32;95031.06;;;26.65;39.84
41062;BME280;26812;42.662;23.352;2022-07-24T06:38:58;95012.56;;;26.58;39.51
41062;BME280;26812;42.662;23.352;2022-07-24T06:41:23;95001.38;;;26.69;39.92
41062;BME280;26812;42.662;23.352;2022-07-24T06:43:49;95009.75;;;26.89;40.07
41062;BME280;26812;42.662;23.352;2022-07-24T06:46:14;95001.97;;;27.07;40.06
41062;BME280;26812;42.662;23.352;2022-07-24T06:48:39;94998.50;;;27.27;40.21
41062;BME280;26812;42.662;23.352;2022-07-24T06:51:05;95002.47;;;27.45;39.94
41062;BME280;26812;42.662;23.352;2022-07-24T06:53:31;95005.66;;;27.67;39.59
41062;BME280;26812;42.662;23.352;2022-07-24T06:55:56;95000.34;;;27.76;39.32
41062;BME280;26812;42.662;23.352;2022-07-24T06:58:22;95005.59;;;27.91;39.03
41062;BME280;26812;42.662;23.352;2022-07-24T07:00:48;95004.38;;;28.11;39.01
41062;BME280;26812;42.662;23.352;2022-07-24T07:03:14;95005.78;;;28.39;38.29
41062;BME280;26812;42.662;23.352;2022-07-24T07:05:40;95008.75;;;28.49;37.79
41062;BME280;26812;42.662;23.352;2022-07-24T07:08:05;95013.00;;;28.53;38.52
41062;BME280;26812;42.662;23.352;2022-07-24T07:10:31;95000.38;;;28.68;37.58
41062;BME280;26812;42.662;23.352;2022-07-24T07:12:57;95005.16;;;28.84;37.59
41062;BME280;26812;42.662;23.352;2022-07-24T07:15:23;94990.53;;;28.84;37.28
41062;BME280;26812;42.662;23.352;2022-07-24T07:17:48;94992.81;;;28.89;35.30
41062;BME280;26812;42.662;23.352;2022-07-24T07:20:14;95011.91;;;28.67;35.40
41062;BME280;26812;42.662;23.352;2022-07-24T07:22:40;94993.31;;;28.31;35.93
41062;BME280;26812;42.662;23.352;2022-07-24T07:25:06;95000.25;;;28.39;36.53
41062;BME280;26812;42.662;23.352;2022-07-24T07:27:31;95002.97;;;28.59;36.49
41062;BME280;26812;42.662;23.352;2022-07-24T07:29:57;95001.63;;;28.84;36.40
41062;BME280;26812;42.662;23.352;2022-07-24T07:32:22;94990.19;;;28.98;35.74
41062;BME280;26812;42.662;23.352;2022-07-24T07:34:48;94996.78;;;29.20;35.94
41062;BME280;26812;42.662;23.352;2022-07-24T07:37:13;94985.34;;;29.18;34.66
41062;BME280;26812;42.662;23.352;2022-07-24T07:39:39;95009.69;;;29.27;35.02
41062;BME280;26812;42.662;23.352;2022-07-24T07:42:04;94996.84;;;29.49;34.33
41062;BME280;26812;42.662;23.352;2022-07-24T07:44:30;94998.28;;;29.70;35.03
41062;BME280;26812;42.662;23.352;2022-07-24T07:46:55;95001.97;;;29.80;34.30
41062;BME280;26812;42.662;23.352;2022-07-24T07:49:21;94996.78;;;29.94;33.60
41062;BME280;26812;42.662;23.352;2022-07-24T07:51:46;95005.19;;;30.07;33.13
41062;BME280;26812;42.662;23.352;2022-07-24T07:54:15;95005.78;;;30.27;33.69
41062;BME280;26812;42.662;23.352;2022-07-24T07:56:41;94994.34;;;30.38;33.94
41062;BME280;26812;42.662;23.352;2022-07-24T07:59:07;95000.25;;;30.53;33.89
41062;BME280;26812;42.662;23.352;2022-07-24T08:01:33;94996.63;;;30.69;32.53
41062;BME280;26812;42.662;23.352;2022-07-24T08:03:58;94993.06;;;30.81;32.23
41062;BME280;26812;42.662;23.352;2022-07-24T08:06:23;94999.41;;;30.94;30.66
41062;BME280;26812;42.662;23.352;2022-07-24T08:08:49;94993.84;;;30.94;31.14
41062;BME280;26812;42.662;23.352;2022-07-24T08:11:14;95001.03;;;31.17;30.58
41062;BME280;26812;42.662;23.352;2022-07-24T08:13:40;94991.13;;;31.16;30.26
41062;BME280;26812;42.662;23.352;2022-07-24T08:16:05;94986.44;;;31.13;30.70
41062;BME280;26812;42.662;23.352;2022-07-24T08:18:31;95003.78;;;31.42;30.38
41062;BME280;26812;42.662;23.352;2022-07-24T08:20:56;94996.94;;;31.56;30.39
41062;BME280;26812;42.662;23.352;2022-07-24T08:23:22;94998.09;;;31.80;29.39
41062;BME280;26812;42.662;23.352;2022-07-24T08:25:47;95003.28;;;31.91;29.79
41062;BME280;26812;42.662;23.352;2022-07-24T08:28:12;95006.00;;;32.04;29.27
41062;BME280;26812;42.662;23.352;2022-07-24T08:30:38;94996.13;;;32.12;29.53
41062;BME280;26812;42.662;23.352;2022-07-24T08:33:03;94998.69;;;32.19;29.95
41062;BME280;26812;42.662;23.352;2022-07-24T08:35:29;95000.09;;;32.24;29.29
41062;BME280;26812;42.662;23.352;2022-07-24T08:37:54;95003.75;;;32.33;29.33
41062;BME280;26812;42.662;23.352;2022-07-24T08:40:20;94993.53;;;32.39;29.60
41062;BME280;26812;42.662;23.352;2022-07-24T08:42:47;94999.31;;;32.23;29.44
41062;BME280;26812;42.662;23.352;2022-07-24T08:45:12;94997.88;;;31.75;29.53
41062;BME280;26812;42.662;23.352;2022-07-24T08:47:39;94985.25;;;31.27;29.28
41062;BME280;26812;42.662;23.352;2022-07-24T08:50:05;94971.31;;;31.14;30.45
41062;BME280;26812;42.662;23.352;2022-07-24T08:52:33;94987.78;;;31.34;31.25
41062;BME280;26812;42.662;23.352;2022-07-24T08:55:04;94983.50;;;31.42;31.75
41062;BME280;26812;42.662;23.352;2022-07-24T08:57:30;94988.16;;;31.58;31.76
41062;BME280;26812;42.662;23.352;2022-07-24T08:59:56;94986.44;;;31.73;31.44
41062;BME280;26812;42.662;23.352;2022-07-24T09:02:21;94987.53;;;31.75;31.24
41062;BME280;26812;42.662;23.352;2022-07-24T09:04:48;94984.47;;;31.48;31.90
41062;BME280;26812;42.662;23.352;2022-07-24T09:07:19;94983.81;;;31.57;31.04
41062;BME280;26812;42.662;23.352;2022-07-24T09:10:00;94981.63;;;31.39;30.82
41062;BME280;26812;42.662;23.352;2022-07-24T09:12:30;94964.50;;;31.62;31.03
41062;BME280;26812;42.662;23.352;2022-07-24T09:14:56;94979.63;;;31.96;30.99
41062;BME280;26812;42.662;23.352;2022-07-24T09:17:21;94972.50;;;31.95;31.09
41062;BME280;26812;42.662;23.352;2022-07-24T09:19:52;94978.59;;;32.24;30.73
41062;BME280;26812;42.662;23.352;2022-07-24T09:22:38;94974.63;;;32.34;29.75
41062;BME280;26812;42.662;23.352;2022-07-24T09:27:30;94974.00;;;32.70;30.51
41062;BME280;26812;42.662;23.352;2022-07-24T09:29:55;94965.44;;;32.87;28.51
41062;BME280;26812;42.662;23.352;2022-07-24T09:32:24;94975.97;;;32.92;29.39
41062;BME280;26812;42.662;23.352;2022-07-24T09:34:53;94981.16;;;33.12;29.51
41062;BME280;26812;42.662;23.352;2022-07-24T09:37:20;94971.91;;;33.33;29.02
41062;BME280;26812;42.662;23.352;2022-07-24T09:39:46;94988.50;;;33.37;27.93
41062;BME280;26812;42.662;23.352;2022-07-24T09:42:12;94978.78;;;32.92;28.28
41062;BME280;26812;42.662;23.352;2022-07-24T09:44:38;94977.44;;;33.15;28.61
41062;BME280;26812;42.662;23.352;2022-07-24T09:47:06;94969.31;;;33.48;28.36
41062;BME280;26812;42.662;23.352;2022-07-24T09:49:32;94968.53;;;33.75;28.09
41062;BME280;26812;42.662;23.352;2022-07-24T09:54:32;94969.13;;;34.15;27.22
41062;BME280;26812;42.662;23.352;2022-07-24T10:00:06;94951.00;;;34.62;26.60
41062;BME280;26812;42.662;23.352;2022-07-24T10:02:34;94944.72;;;34.76;25.96
41062;BME280;26812;42.662;23.352;2022-07-24T10:05:02;94947.19;;;34.83;25.84
41062;BME280;26812;42.662;23.352;2022-07-24T10:07:29;94951.19;;;34.92;25.01
41062;BME280;26812;42.662;23.352;2022-07-24T10:09:59;94937.34;;;34.88;23.59
41062;BME280;26812;42.662;23.352;2022-07-24T10:12:26;94942.34;;;34.84;25.16
41062;BME280;26812;42.662;23.352;2022-07-24T10:14:55;94938.50;;;35.05;24.76
41062;BME280;26812;42.662;23.352;2022-07-24T10:17:42;94933.81;;;35.11;24.26
41062;BME280;26812;42.662;23.352;2022-07-24T10:20:19;94939.00;;;35.28;24.85
41062;BME280;26812;42.662;23.352;2022-07-24T10:23:02;94938.88;;;35.46;24.18
41062;BME280;26812;42.662;23.352;2022-07-24T10:25:30;94933.72;;;35.54;24.12
41062;BME280;26812;42.662;23.352;2022-07-24T10:28:02;94931.41;;;35.67;23.87
41062;BME280;26812;42.662;23.352;2022-07-24T10:30:28;94924.88;;;35.46;22.08
41062;BME280;26812;42.662;23.352;2022-07-24T10:32:53;94918.22;;;35.43;23.73
41062;BME280;26812;42.662;23.352;2022-07-24T10:35:28;94921.13;;;35.49;23.59
41062;BME280;26812;42.662;23.352;2022-07-24T10:40:51;94927.06;;;35.81;24.04
41062;BME280;26812;42.662;23.352;2022-07-24T10:43:20;94930.91;;;35.54;23.36
41062;BME280;26812;42.662;23.352;2022-07-24T10:56:38;94899.53;;;35.79;22.48
41062;BME280;26812;42.662;23.352;2022-07-24T11:01:48;94898.47;;;35.76;22.31
41062;BME280;26812;42.662;23.352;2022-07-24T11:06:52;94883.81;;;35.43;21.61
41062;BME280;26812;42.662;23.352;2022-07-24T11:09:22;94891.88;;;35.65;22.00
41062;BME280;26812;42.662;23.352;2022-07-24T11:14:17;94881.88;;;36.02;22.85
41062;BME280;26812;42.662;23.352;2022-07-24T11:16:43;94855.31;;;36.13;21.34
41062;BME280;26812;42.662;23.352;2022-07-24T11:21:38;94874.88;;;36.57;22.27
41062;BME280;26812;42.662;23.352;2022-07-24T11:26:48;94882.47;;;36.36;22.38
41062;BME280;26812;42.662;23.352;2022-07-24T11:29:14;94883.91;;;36.17;22.85
41062;BME280;26812;42.662;23.352;2022-07-24T11:31:43;94881.78;;;36.12;22.85
41062;BME280;26812;42.662;23.352;2022-07-24T11:34:09;94861.50;;;36.17;22.49
41062;BME280;26812;42.662;23.352;2022-07-24T11:36:36;94878.78;;;36.00;23.12
41062;BME280;26812;42.662;23.352;2022-07-24T11:39:04;94862.22;;;35.73;22.98
41062;BME280;26812;42.662;23.352;2022-07-24T11:44:11;94870.72;;;35.78;22.63
41062;BME280;26812;42.662;23.352;2022-07-24T11:46:38;94874.22;;;35.73;23.26
41062;BME280;26812;42.662;23.352;2022-07-24T11:49:06;94863.00;;;35.59;23.55
41062;BME280;26812;42.662;23.352;2022-07-24T11:54:09;94861.38;;;35.28;24.09
41062;BME280;26812;42.662;23.352;2022-07-24T11:56:35;94868.28;;;35.18;24.40
41062;BME280;26812;42.662;23.352;2022-07-24T11:59:01;94855.31;;;35.06;24.18
41062;BME280;26812;42.662;23.352;2022-07-24T12:01:26;94847.72;;;34.73;24.43
41062;BME280;26812;42.662;23.352;2022-07-24T12:03:53;94865.16;;;34.68;24.53
41062;BME280;26812;42.662;23.352;2022-07-24T12:06:21;94854.06;;;34.50;25.01
41062;BME280;26812;42.662;23.352;2022-07-24T12:08:47;94849.31;;;34.41;25.13
41062;BME280;26812;42.662;23.352;2022-07-24T12:11:23;94857.69;;;34.41;25.21
41062;BME280;26812;42.662;23.352;2022-07-24T12:13:49;94850.75;;;34.18;26.13
41062;BME280;26812;42.662;23.352;2022-07-24T12:16:27;94853.47;;;33.94;26.18
41062;BME280;26812;42.662;23.352;2022-07-24T12:19:17;94848.53;;;33.99;25.75
41062;BME280;26812;42.662;23.352;2022-07-24T12:21:44;94856.91;;;33.80;26.25
41062;BME280;26812;42.662;23.352;2022-07-24T12:24:11;94851.50;;;33.86;27.01
41062;BME280;26812;42.662;23.352;2022-07-24T12:26:53;94852.25;;;33.95;26.41
41062;BME280;26812;42.662;23.352;2022-07-24T12:29:20;94834.69;;;34.04;26.80
41062;BME280;26812;42.662;23.352;2022-07-24T12:31:45;94831.00;;;34.31;26.86
41062;BME280;26812;42.662;23.352;2022-07-24T12:34:11;94830.16;;;34.49;26.74
41062;BME280;26812;42.662;23.352;2022-07-24T12:36:36;94829.50;;;34.78;25.91
41062;BME280;26812;42.662;23.352;2022-07-24T12:39:03;94832.91;;;35.06;25.09
41062;BME280;26812;42.662;23.352;2022-07-24T12:41:30;94823.00;;;35.20;25.51
41062;BME280;26812;42.662;23.352;2022-07-24T12:44:01;94825.50;;;35.56;24.05
41062;BME280;26812;42.662;23.352;2022-07-24T12:56:46;94800.13;;;35.89;24.26
41062;BME280;26812;42.662;23.352;2022-07-24T12:59:29;94792.25;;;36.08;22.82
41062;BME280;26812;42.662;23.352;2022-07-24T13:01:57;94799.03;;;35.72;21.96
41062;BME280;26812;42.662;23.352;2022-07-24T13:04:24;94800.91;;;35.90;23.47
41062;BME280;26812;42.662;23.352;2022-07-24T13:06:52;94795.34;;;35.81;22.77
41062;BME280;26812;42.662;23.352;2022-07-24T13:09:19;94799.44;;;35.94;23.46
41062;BME280;26812;42.662;23.352;2022-07-24T13:11:47;94792.03;;;36.12;23.45
41062;BME280;26812;42.662;23.352;2022-07-24T13:14:14;94789.06;;;36.30;22.88
41062;BME280;26812;42.662;23.352;2022-07-24T13:16:42;94777.66;;;36.54;21.62
41062;BME280;26812;42.662;23.352;2022-07-24T13:19:08;94779.00;;;36.58;21.69
41062;BME280;26812;42.662;23.352;2022-07-24T13:21:35;94772.41;;;36.61;21.50
41062;BME280;26812;42.662;23.352;2022-07-24T13:24:02;94772.13;;;36.59;21.82
41062;BME280;26812;42.662;23.352;2022-07-24T13:26:28;94774.91;;;36.59;22.30
41062;BME280;26812;42.662;23.352;2022-07-24T13:28:53;94770.44;;;36.67;21.77
41062;BME280;26812;42.662;23.352;2022-07-24T13:31:19;94767.34;;;36.65;21.78
41062;BME280;26812;42.662;23.352;2022-07-24T13:33:46;94752.47;;;36.59;21.67
41062;BME280;26812;42.662;23.352;2022-07-24T13:36:12;94764.09;;;36.73;20.76